createdAt,value
2023-01-28T00:01:16.575Z,8.48
2023-01-28T00:03:46.306Z,10.68
2023-01-28T00:06:17.757Z,14.70
2023-01-28T00:08:47.629Z,23.85
2023-01-28T00:11:17.290Z,29.33
2023-01-28T00:13:47.491Z,26.98
2023-01-28T00:16:17.315Z,17.52
2023-01-28T00:18:47.155Z,15.52
2023-01-28T00:21:18.301Z,14.43
2023-01-28T00:23:56.149Z,13.30
2023-01-28T00:26:27.167Z,13.65
2023-01-28T00:28:57.038Z,14.52
2023-01-28T00:31:29.118Z,14.18
2023-01-28T00:33:59.676Z,19.35
2023-01-28T00:36:29.860Z,18.27
2023-01-28T00:39:01.973Z,16.23
2023-01-28T00:41:33.266Z,16.33
2023-01-28T00:44:04.288Z,15.10
2023-01-28T00:46:34.121Z,15.13
2023-01-28T00:49:04.016Z,14.45
2023-01-28T00:51:33.852Z,14.80
2023-01-28T00:54:03.848Z,11.30
2023-01-28T00:56:33.667Z,12.35
2023-01-28T00:59:03.359Z,11.48
2023-01-28T01:01:33.425Z,9.88
2023-01-28T01:04:06.316Z,10.80
2023-01-28T01:06:41.626Z,10.60
2023-01-28T01:09:14.101Z,11.43
2023-01-28T01:11:43.825Z,10.68
2023-01-28T01:14:14.153Z,10.57
2023-01-28T01:16:43.892Z,10.55
2023-01-28T01:19:13.601Z,9.45
2023-01-28T01:21:43.410Z,8.73
2023-01-28T01:24:13.158Z,9.30
2023-01-28T01:26:42.855Z,8.38
2023-01-28T01:29:12.721Z,8.15
2023-01-28T01:31:42.627Z,9.20
2023-01-28T01:34:12.754Z,8.93
2023-01-28T01:36:42.596Z,11.02
2023-01-28T01:39:15.071Z,10.02
2023-01-28T01:41:45.099Z,9.73
2023-01-28T01:44:55.827Z,10.15
2023-01-28T01:47:42.624Z,9.50
2023-01-28T01:50:39.171Z,9.30
2023-01-28T01:53:19.224Z,8.20
2023-01-28T01:55:52.159Z,8.15
2023-01-28T01:58:26.239Z,7.95
2023-01-28T02:00:55.917Z,7.18
2023-01-28T02:03:39.192Z,7.05
2023-01-28T02:06:10.181Z,8.30
2023-01-28T02:08:39.964Z,7.05
2023-01-28T02:11:12.151Z,7.53
2023-01-28T02:13:49.306Z,7.40
2023-01-28T02:16:19.982Z,8.15
2023-01-28T02:18:49.823Z,7.32
2023-01-28T02:21:58.632Z,8.00
2023-01-28T02:24:57.591Z,7.65
2023-01-28T02:27:57.314Z,8.90
2023-01-28T02:30:40.952Z,8.50
2023-01-28T02:33:20.827Z,9.45
2023-01-28T02:35:56.252Z,8.75
2023-01-28T02:38:41.980Z,9.18
2023-01-28T02:41:18.008Z,7.97
2023-01-28T02:43:49.393Z,8.13
2023-01-28T02:46:59.800Z,8.43
2023-01-28T02:49:46.003Z,8.38
2023-01-28T02:53:07.764Z,8.88
2023-01-28T02:56:06.161Z,8.10
2023-01-28T02:58:44.881Z,7.50
2023-01-28T03:01:32.046Z,7.65
2023-01-28T03:04:19.273Z,7.68
2023-01-28T03:06:55.964Z,7.70
2023-01-28T03:09:28.866Z,8.23
2023-01-28T03:12:39.783Z,7.68
2023-01-28T03:15:36.547Z,7.93
2023-01-28T03:18:37.119Z,7.80
2023-01-28T03:21:46.826Z,7.90
2023-01-28T03:24:45.288Z,7.93
2023-01-28T03:27:47.482Z,8.10
2023-01-28T03:30:44.469Z,8.55
2023-01-28T03:33:34.268Z,7.63
2023-01-28T03:36:24.923Z,8.73
2023-01-28T03:38:54.965Z,7.70
2023-01-28T03:41:26.964Z,8.45
2023-01-28T03:43:57.928Z,8.02
2023-01-28T03:46:28.438Z,8.07
2023-01-28T03:48:58.526Z,8.50
2023-01-28T03:51:28.454Z,7.20
2023-01-28T03:53:58.404Z,7.88
2023-01-28T03:56:30.266Z,8.57
2023-01-28T03:59:00.144Z,7.65
2023-01-28T04:01:30.011Z,8.27
2023-01-28T04:03:59.988Z,8.70
2023-01-28T04:06:30.877Z,8.15
2023-01-28T04:09:03.749Z,7.63
2023-01-28T04:11:33.678Z,7.57
2023-01-28T04:14:03.426Z,8.32
2023-01-28T04:16:33.351Z,7.93
2023-01-28T04:19:03.358Z,8.43
2023-01-28T04:21:33.388Z,8.35
2023-01-28T04:24:03.705Z,8.35
2023-01-28T04:26:33.799Z,7.15
2023-01-28T04:29:03.770Z,8.00
2023-01-28T04:31:34.068Z,8.27
2023-01-28T04:34:03.971Z,8.10
2023-01-28T04:36:34.021Z,8.77
2023-01-28T04:39:03.929Z,8.30
2023-01-28T04:41:33.768Z,8.05
2023-01-28T04:44:03.440Z,7.40
2023-01-28T04:46:34.144Z,7.88
2023-01-28T04:49:05.254Z,7.72
2023-01-28T04:51:35.003Z,7.72
2023-01-28T04:54:04.973Z,7.50
2023-01-28T04:56:34.843Z,7.55
2023-01-28T04:59:04.727Z,8.32
2023-01-28T05:01:34.543Z,7.85
2023-01-28T05:04:07.412Z,7.82
2023-01-28T05:06:37.499Z,7.32
2023-01-28T05:09:07.384Z,8.93
2023-01-28T05:11:39.185Z,7.45
2023-01-28T05:14:09.221Z,8.23
2023-01-28T05:16:39.102Z,8.05
2023-01-28T05:19:09.120Z,8.95
2023-01-28T05:21:38.916Z,8.43
2023-01-28T05:24:09.338Z,8.45
2023-01-28T05:26:39.134Z,8.20
2023-01-28T05:29:09.155Z,8.32
2023-01-28T05:31:39.050Z,7.82
2023-01-28T05:34:09.008Z,8.07
2023-01-28T05:36:39.007Z,7.65
2023-01-28T05:39:09.567Z,8.00
2023-01-28T05:41:39.415Z,7.93
2023-01-28T05:44:09.150Z,8.85
2023-01-28T05:46:39.984Z,8.15
2023-01-28T05:49:13.992Z,9.20
2023-01-28T05:51:44.642Z,8.80
2023-01-28T05:54:14.827Z,8.65
2023-01-28T05:56:44.768Z,8.77
2023-01-28T05:59:15.174Z,8.38
2023-01-28T06:01:45.022Z,8.95
2023-01-28T06:04:14.935Z,9.00
2023-01-28T06:06:44.873Z,9.63
2023-01-28T06:09:14.621Z,9.50
2023-01-28T06:11:44.545Z,9.18
2023-01-28T06:14:14.630Z,8.90
2023-01-28T06:16:44.441Z,8.73
2023-01-28T06:19:14.169Z,8.73
2023-01-28T06:21:45.328Z,8.73
2023-01-28T06:24:15.959Z,8.27
2023-01-28T06:26:45.714Z,9.20
2023-01-28T06:29:15.555Z,9.45
2023-01-28T06:31:45.472Z,8.38
2023-01-28T06:34:15.586Z,8.95
2023-01-28T06:36:45.581Z,8.93
2023-01-28T06:39:15.441Z,9.27
2023-01-28T06:41:45.374Z,8.65
2023-01-28T06:44:17.983Z,8.85
2023-01-28T06:46:47.739Z,8.70
2023-01-28T06:49:17.725Z,8.73
2023-01-28T06:51:47.575Z,8.35
2023-01-28T06:54:18.064Z,8.30
2023-01-28T06:56:47.873Z,8.23
2023-01-28T06:59:17.675Z,8.45
2023-01-28T07:01:47.601Z,8.57
2023-01-28T07:04:17.472Z,8.75
2023-01-28T07:06:47.206Z,8.88
2023-01-28T07:09:17.077Z,9.05
2023-01-28T07:11:46.867Z,8.85
2023-01-28T07:14:16.535Z,8.82
2023-01-28T07:16:46.373Z,8.57
2023-01-28T07:19:16.111Z,9.45
2023-01-28T07:21:45.981Z,8.57
2023-01-28T07:24:16.018Z,8.55
2023-01-28T07:26:45.763Z,8.73
2023-01-28T07:29:15.782Z,8.07
2023-01-28T07:31:45.819Z,8.75
2023-01-28T07:34:15.925Z,8.40
2023-01-28T07:36:45.728Z,8.35
2023-01-28T07:39:15.512Z,8.80
2023-01-28T07:41:45.290Z,9.43
2023-01-28T07:44:15.155Z,8.23
2023-01-28T07:46:44.947Z,9.10
2023-01-28T07:49:15.384Z,8.95
2023-01-28T07:51:48.261Z,8.88
2023-01-28T07:54:18.171Z,8.90
2023-01-28T07:56:47.926Z,9.27
2023-01-28T07:59:17.850Z,9.27
2023-01-28T08:01:47.569Z,8.95
2023-01-28T08:04:17.371Z,9.02
2023-01-28T08:06:47.186Z,9.38
2023-01-28T08:09:16.976Z,8.10
2023-01-28T08:11:46.735Z,8.48
2023-01-28T08:14:16.593Z,8.80
2023-01-28T08:16:46.308Z,8.85
2023-01-28T08:19:16.105Z,8.68
2023-01-28T08:21:45.877Z,8.73
2023-01-28T08:24:15.624Z,9.60
2023-01-28T08:26:45.840Z,9.18
2023-01-28T08:29:15.588Z,9.43
2023-01-28T08:31:45.420Z,9.52
2023-01-28T08:34:15.190Z,8.85
2023-01-28T08:36:45.150Z,10.15
2023-01-28T08:39:14.926Z,9.32
2023-01-28T08:41:44.756Z,9.38
2023-01-28T08:44:14.604Z,8.68
2023-01-28T08:46:44.603Z,8.85
2023-01-28T08:49:14.650Z,7.50
2023-01-28T08:51:45.820Z,8.38
2023-01-28T08:54:16.033Z,8.85
2023-01-28T08:56:46.737Z,9.23
2023-01-28T08:59:16.788Z,9.20
2023-01-28T09:01:47.060Z,8.93
2023-01-28T09:04:17.145Z,8.50
2023-01-28T09:06:46.859Z,8.93
2023-01-28T09:09:16.877Z,9.93
2023-01-28T09:11:46.673Z,8.30
2023-01-28T09:14:16.443Z,9.18
2023-01-28T09:16:46.272Z,8.55
2023-01-28T09:19:16.133Z,8.82
2023-01-28T09:21:45.834Z,9.05
2023-01-28T09:24:15.726Z,9.55
2023-01-28T09:26:46.401Z,9.05
2023-01-28T09:29:16.200Z,7.93
2023-01-28T09:31:46.413Z,8.52
2023-01-28T09:34:16.231Z,8.38
2023-01-28T09:36:46.100Z,8.88
2023-01-28T09:39:15.893Z,9.10
2023-01-28T09:42:20.863Z,9.52
2023-01-28T09:45:18.012Z,8.65
2023-01-28T09:48:08.295Z,9.23
2023-01-28T09:50:42.147Z,9.77
2023-01-28T09:53:34.295Z,9.40
2023-01-28T09:56:13.696Z,8.57
2023-01-28T09:58:45.241Z,8.93
2023-01-28T10:01:44.350Z,9.55
2023-01-28T10:04:43.319Z,9.23
2023-01-28T10:07:31.774Z,9.55
2023-01-28T10:10:18.444Z,9.68
2023-01-28T10:13:05.929Z,9.60
2023-01-28T10:16:14.932Z,9.55
2023-01-28T10:19:00.662Z,9.18
2023-01-28T10:21:41.362Z,9.30
2023-01-28T10:24:36.348Z,9.63
2023-01-28T10:27:18.623Z,9.75
2023-01-28T10:29:51.846Z,9.65
2023-01-28T10:32:45.904Z,10.23
2023-01-28T10:35:15.691Z,9.25
2023-01-28T10:37:45.615Z,9.57
2023-01-28T10:40:20.198Z,8.98
2023-01-28T10:42:49.963Z,9.68
2023-01-28T10:45:34.487Z,10.15
2023-01-28T10:48:14.196Z,9.40
2023-01-28T10:50:54.351Z,9.00
2023-01-28T10:53:37.933Z,9.82
2023-01-28T10:56:16.800Z,9.93
2023-01-28T10:59:07.439Z,9.48
2023-01-28T11:01:55.094Z,9.80
2023-01-28T11:04:31.944Z,10.40
2023-01-28T11:07:09.711Z,10.18
2023-01-28T11:09:40.833Z,9.63
2023-01-28T11:12:31.139Z,10.23
2023-01-28T11:15:06.969Z,9.98
2023-01-28T11:17:41.938Z,10.85
2023-01-28T11:20:25.841Z,10.27
2023-01-28T11:22:56.643Z,10.82
2023-01-28T11:25:34.531Z,10.82
2023-01-28T11:28:10.237Z,9.80
2023-01-28T11:30:43.561Z,11.18
2023-01-28T11:33:25.856Z,10.73
2023-01-28T11:36:05.914Z,11.55
2023-01-28T11:38:36.355Z,11.30
2023-01-28T11:41:06.298Z,12.93
2023-01-28T11:43:36.276Z,12.65
2023-01-28T11:46:35.353Z,12.15
2023-01-28T11:49:34.293Z,13.25
2023-01-28T11:52:55.358Z,12.85
2023-01-28T11:55:55.760Z,13.27
2023-01-28T11:59:00.302Z,13.30
2023-01-28T12:02:09.275Z,14.60
2023-01-28T12:05:11.855Z,16.08
2023-01-28T12:08:20.626Z,17.10
2023-01-28T12:11:47.211Z,17.70
2023-01-28T12:14:56.132Z,14.23
2023-01-28T12:18:04.899Z,13.95
2023-01-28T12:21:00.409Z,14.10
2023-01-28T12:23:56.855Z,14.00
2023-01-28T12:26:47.356Z,15.63
2023-01-28T12:29:56.277Z,13.38
2023-01-28T12:32:46.654Z,14.93
2023-01-28T12:35:45.333Z,15.23
2023-01-28T12:38:38.586Z,14.65
2023-01-28T12:41:23.709Z,16.25
2023-01-28T12:44:26.732Z,15.55
2023-01-28T12:47:04.325Z,16.02
2023-01-28T12:50:03.950Z,16.15
2023-01-28T12:52:41.989Z,15.65
2023-01-28T12:55:42.875Z,14.38
2023-01-28T12:58:23.434Z,15.82
2023-01-28T13:01:02.975Z,14.82
2023-01-28T13:03:51.843Z,15.65
2023-01-28T13:06:37.957Z,16.02
2023-01-28T13:09:20.441Z,15.18
2023-01-28T13:11:53.121Z,15.52
2023-01-28T13:14:33.800Z,15.50
2023-01-28T13:17:30.629Z,15.30
2023-01-28T13:20:02.021Z,14.77
2023-01-28T13:22:37.758Z,15.27
2023-01-28T13:25:31.596Z,14.68
2023-01-28T13:28:08.006Z,15.18
2023-01-28T13:30:51.476Z,15.48
2023-01-28T13:33:42.357Z,16.10
2023-01-28T13:36:34.446Z,15.02
2023-01-28T13:39:07.895Z,15.93
2023-01-28T13:41:50.864Z,16.80
2023-01-28T13:44:36.504Z,16.42
2023-01-28T13:47:27.672Z,15.85
2023-01-28T13:50:09.036Z,17.70
2023-01-28T13:52:52.808Z,19.88
2023-01-28T13:55:41.706Z,18.50
2023-01-28T13:58:37.731Z,18.05
2023-01-28T14:01:44.030Z,16.50
2023-01-28T14:04:46.103Z,18.45
2023-01-28T14:07:54.849Z,18.48
2023-01-28T14:10:37.258Z,18.00
2023-01-28T14:13:42.831Z,17.65
2023-01-28T14:16:45.076Z,18.25
2023-01-28T14:19:16.383Z,19.60
2023-01-28T14:21:46.398Z,19.00
2023-01-28T14:24:20.890Z,17.95
2023-01-28T14:27:09.654Z,19.77
2023-01-28T14:30:18.481Z,20.40
2023-01-28T14:32:51.718Z,21.55
2023-01-28T14:35:37.098Z,21.67
2023-01-28T14:38:14.816Z,24.90
2023-01-28T14:40:45.390Z,25.48
2023-01-28T14:43:21.555Z,24.83
2023-01-28T14:46:16.217Z,25.23
2023-01-28T14:49:02.732Z,25.80
2023-01-28T14:52:11.795Z,26.42
2023-01-28T14:55:07.030Z,28.02
2023-01-28T14:58:07.673Z,26.88
2023-01-28T15:00:37.984Z,24.98
2023-01-28T15:03:28.078Z,25.88
2023-01-28T15:06:19.097Z,25.75
2023-01-28T15:08:49.180Z,24.67
2023-01-28T15:11:25.179Z,24.15
2023-01-28T15:14:01.571Z,24.55
2023-01-28T15:16:33.383Z,23.63
2023-01-28T15:19:04.575Z,22.98
2023-01-28T15:21:35.154Z,22.95
2023-01-28T15:24:05.267Z,23.33
2023-01-28T15:26:36.966Z,23.65
2023-01-28T15:29:06.793Z,24.95
2023-01-28T15:31:40.668Z,24.60
2023-01-28T15:34:19.677Z,26.92
2023-01-28T15:36:51.624Z,26.67
2023-01-28T15:39:24.274Z,24.77
2023-01-28T15:42:20.939Z,26.30
2023-01-28T15:44:52.140Z,25.17
2023-01-28T15:47:35.627Z,25.90
2023-01-28T15:50:08.472Z,27.80
2023-01-28T15:52:41.617Z,27.63
2023-01-28T15:55:41.228Z,29.55
2023-01-28T15:58:37.082Z,27.25
2023-01-28T16:01:18.853Z,28.40
2023-01-28T16:04:02.663Z,31.95
2023-01-28T16:06:44.629Z,33.78
2023-01-28T16:09:26.566Z,29.80
2023-01-28T16:12:03.189Z,33.05
2023-01-28T16:14:43.803Z,32.25
2023-01-28T16:17:19.085Z,33.60
2023-01-28T16:19:52.940Z,35.83
2023-01-28T16:22:45.140Z,34.88
2023-01-28T16:25:35.707Z,37.45
2023-01-28T16:28:14.547Z,39.05
2023-01-28T16:30:44.351Z,37.63
2023-01-28T16:33:24.204Z,36.63
2023-01-28T16:36:07.670Z,33.33
2023-01-28T16:38:38.340Z,35.65
2023-01-28T16:41:08.342Z,34.63
2023-01-28T16:43:38.049Z,35.20
2023-01-28T16:46:09.523Z,33.97
2023-01-28T16:48:39.786Z,34.33
2023-01-28T16:51:16.606Z,34.78
2023-01-28T16:53:48.325Z,34.08
2023-01-28T16:56:43.650Z,33.05
2023-01-28T16:59:14.483Z,31.38
2023-01-28T17:01:45.384Z,31.65
2023-01-28T17:04:15.707Z,32.53
2023-01-28T17:06:46.946Z,32.47
2023-01-28T17:09:17.633Z,33.83
2023-01-28T17:11:47.668Z,33.38
2023-01-28T17:14:17.554Z,34.33
2023-01-28T17:16:47.315Z,33.88
2023-01-28T17:19:19.710Z,34.00
2023-01-28T17:21:49.522Z,36.22
2023-01-28T17:24:19.394Z,35.72
2023-01-28T17:26:49.216Z,33.75
2023-01-28T17:29:19.056Z,37.72
2023-01-28T17:31:48.926Z,37.63
2023-01-28T17:34:18.838Z,36.28
2023-01-28T17:36:48.576Z,39.65
2023-01-28T17:39:18.406Z,38.35
2023-01-28T17:41:48.296Z,36.42
2023-01-28T17:44:18.227Z,38.45
2023-01-28T17:46:48.286Z,38.25
2023-01-28T17:49:18.111Z,38.15
2023-01-28T17:51:47.805Z,39.75
2023-01-28T17:54:18.625Z,39.38
2023-01-28T17:56:48.728Z,43.80
2023-01-28T17:59:18.444Z,41.40
2023-01-28T18:01:49.289Z,37.38
2023-01-28T18:04:19.258Z,38.90
2023-01-28T18:06:50.983Z,39.83
2023-01-28T18:09:21.701Z,40.88
2023-01-28T18:11:51.625Z,37.05
2023-01-28T18:14:21.407Z,37.90
2023-01-28T18:16:51.273Z,38.15
2023-01-28T18:19:21.072Z,38.17
2023-01-28T18:21:53.377Z,35.55
2023-01-28T18:24:25.985Z,36.92
2023-01-28T18:26:57.192Z,35.50
2023-01-28T18:29:28.749Z,36.35
2023-01-28T18:31:59.959Z,36.97
2023-01-28T18:34:33.279Z,36.95
2023-01-28T18:37:05.246Z,38.70
2023-01-28T18:39:35.194Z,37.40
2023-01-28T18:42:05.263Z,37.42
2023-01-28T18:44:35.214Z,37.47
2023-01-28T18:47:05.239Z,38.83
2023-01-28T18:49:35.127Z,40.17
2023-01-28T18:52:05.072Z,40.13
2023-01-28T18:54:35.465Z,39.75
2023-01-28T18:57:05.932Z,39.03
2023-01-28T18:59:35.754Z,40.55
2023-01-28T19:02:05.776Z,37.30
2023-01-28T19:04:35.523Z,37.95
2023-01-28T19:07:07.796Z,35.60
2023-01-28T19:09:37.898Z,37.70
2023-01-28T19:12:07.993Z,37.70
2023-01-28T19:14:37.819Z,36.33
2023-01-28T19:17:07.783Z,35.63
2023-01-28T19:19:37.678Z,35.90
2023-01-28T19:22:07.391Z,35.08
2023-01-28T19:24:37.298Z,33.83
2023-01-28T19:27:07.788Z,33.25
2023-01-28T19:29:37.765Z,36.80
2023-01-28T19:32:07.786Z,36.15
2023-01-28T19:34:37.808Z,34.10
2023-01-28T19:37:07.418Z,34.80
2023-01-28T19:39:37.324Z,32.75
2023-01-28T19:42:07.217Z,34.45
2023-01-28T19:44:37.532Z,33.58
2023-01-28T19:47:10.553Z,32.47
2023-01-28T19:49:40.316Z,33.35
2023-01-28T19:52:12.453Z,33.55
2023-01-28T19:54:42.368Z,31.95
2023-01-28T19:57:12.814Z,32.03
2023-01-28T19:59:42.449Z,33.85
2023-01-28T20:02:12.833Z,34.50
2023-01-28T20:04:59.711Z,34.58
2023-01-28T20:07:30.782Z,32.88
2023-01-28T20:10:00.531Z,32.15
2023-01-28T20:12:30.561Z,32.75
2023-01-28T20:15:00.356Z,32.33
2023-01-28T20:17:30.487Z,34.40
2023-01-28T20:20:00.192Z,33.15
2023-01-28T20:22:29.950Z,32.08
2023-01-28T20:24:59.749Z,32.92
2023-01-28T20:27:29.454Z,32.83
2023-01-28T20:29:59.308Z,31.77
2023-01-28T20:32:29.313Z,31.75
2023-01-28T20:34:59.189Z,30.85
2023-01-28T20:37:28.930Z,30.08
2023-01-28T20:39:58.879Z,28.10
2023-01-28T20:42:28.487Z,28.33
2023-01-28T20:44:58.410Z,29.23
2023-01-28T20:47:28.047Z,28.10
2023-01-28T20:49:57.774Z,29.05
2023-01-28T20:52:27.511Z,28.77
2023-01-28T20:54:57.309Z,28.15
2023-01-28T20:57:26.976Z,28.70
2023-01-28T20:59:56.812Z,27.58
2023-01-28T21:02:26.676Z,27.15
2023-01-28T21:04:56.688Z,27.45
2023-01-28T21:07:26.619Z,26.88
2023-01-28T21:09:56.458Z,26.83
2023-01-28T21:12:26.228Z,26.50
2023-01-28T21:14:56.040Z,26.73
2023-01-28T21:17:27.217Z,28.60
2023-01-28T21:19:57.076Z,26.63
2023-01-28T21:22:26.856Z,26.48
2023-01-28T21:24:56.645Z,26.80
2023-01-28T21:27:26.586Z,29.23
2023-01-28T21:29:56.369Z,26.63
2023-01-28T21:32:27.616Z,26.52
2023-01-28T21:34:57.639Z,25.95
2023-01-28T21:37:28.160Z,26.13
2023-01-28T21:39:57.908Z,25.60
2023-01-28T21:42:27.907Z,27.35
2023-01-28T21:44:57.638Z,27.02
2023-01-28T21:47:27.434Z,28.38
2023-01-28T21:49:57.308Z,26.70
2023-01-28T21:52:27.104Z,25.52
2023-01-28T21:54:56.957Z,26.50
2023-01-28T21:57:26.937Z,27.27
2023-01-28T21:59:57.447Z,26.15
2023-01-28T22:02:27.292Z,25.73
2023-01-28T22:04:57.352Z,26.13
2023-01-28T22:07:27.058Z,25.08
2023-01-28T22:09:56.917Z,25.38
2023-01-28T22:12:26.813Z,24.92
2023-01-28T22:14:56.692Z,24.80
2023-01-28T22:17:27.596Z,25.10
2023-01-28T22:19:57.423Z,24.48
2023-01-28T22:22:27.403Z,25.00
2023-01-28T22:24:57.037Z,24.25
2023-01-28T22:27:28.705Z,24.92
2023-01-28T22:29:59.163Z,26.45
2023-01-28T22:32:29.033Z,26.95
2023-01-28T22:34:59.120Z,25.80
2023-01-28T22:37:28.884Z,26.60
2023-01-28T22:39:58.821Z,26.45
2023-01-28T22:42:28.488Z,26.70
2023-01-28T22:44:58.484Z,27.92
2023-01-28T22:47:28.399Z,27.58
2023-01-28T22:49:58.033Z,26.65
2023-01-28T22:52:27.901Z,27.88
2023-01-28T22:54:57.728Z,27.98
2023-01-28T22:57:27.469Z,27.95
2023-01-28T23:00:00.412Z,26.13
2023-01-28T23:02:31.440Z,25.42
2023-01-28T23:05:01.469Z,27.00
2023-01-28T23:07:31.209Z,27.20
2023-01-28T23:10:01.189Z,26.65
2023-01-28T23:12:31.382Z,26.77
2023-01-28T23:15:20.858Z,27.15
2023-01-28T23:18:10.259Z,28.45
2023-01-28T23:21:01.680Z,30.50
2023-01-28T23:23:51.086Z,34.15
2023-01-28T23:26:20.909Z,37.80
2023-01-28T23:28:50.649Z,33.83
2023-01-28T23:31:20.512Z,38.45
2023-01-28T23:33:50.550Z,34.10
2023-01-28T23:36:21.261Z,37.65
2023-01-28T23:38:51.056Z,46.08
2023-01-28T23:41:20.897Z,45.28
2023-01-28T23:43:50.609Z,45.65
2023-01-28T23:46:27.403Z,45.92
2023-01-28T23:49:03.712Z,43.50
2023-01-28T23:51:33.588Z,46.47
2023-01-28T23:54:03.343Z,49.33
2023-01-28T23:56:33.052Z,54.35
2023-01-28T23:59:02.967Z,53.67
